sensor_id;sensor_type;location;lat;lon;timestamp;P1;durP1;ratioP1;P2;durP2;ratioP2
38853;SDS011;24606;51.992;4.198;2022-09-03T00:04:46;0.80;;;0.80;;
38853;SDS011;24606;51.992;4.198;2022-09-03T00:09:57;2.75;;;1.20;;
38853;SDS011;24606;51.992;4.198;2022-09-03T00:15:06;1.70;;;1.15;;
38853;SDS011;24606;51.992;4.198;2022-09-03T00:20:11;2.42;;;0.80;;
38853;SDS011;24606;51.992;4.198;2022-09-03T00:25:18;1.35;;;1.00;;
38853;SDS011;24606;51.992;4.198;2022-09-03T00:30:28;1.85;;;1.20;;
38853;SDS011;24606;51.992;4.198;2022-09-03T00:35:32;2.28;;;1.13;;
38853;SDS011;24606;51.992;4.198;2022-09-03T00:40:41;1.27;;;1.00;;
38853;SDS011;24606;51.992;4.198;2022-09-03T00:45:56;2.00;;;1.02;;
38853;SDS011;24606;51.992;4.198;2022-09-03T00:51:09;1.30;;;1.00;;
38853;SDS011;24606;51.992;4.198;2022-09-03T00:56:20;4.82;;;1.30;;
38853;SDS011;24606;51.992;4.198;2022-09-03T01:01:31;2.40;;;1.10;;
38853;SDS011;24606;51.992;4.198;2022-09-03T01:06:41;2.63;;;1.27;;
38853;SDS011;24606;51.992;4.198;2022-09-03T01:11:51;2.60;;;1.10;;
38853;SDS011;24606;51.992;4.198;2022-09-03T01:17:01;2.67;;;1.40;;
38853;SDS011;24606;51.992;4.198;2022-09-03T01:22:15;1.10;;;0.90;;
38853;SDS011;24606;51.992;4.198;2022-09-03T01:27:32;3.10;;;1.40;;
38853;SDS011;24606;51.992;4.198;2022-09-03T01:32:45;3.17;;;1.13;;
38853;SDS011;24606;51.992;4.198;2022-09-03T01:37:55;1.67;;;1.20;;
38853;SDS011;24606;51.992;4.198;2022-09-03T01:43:13;1.48;;;1.13;;
38853;SDS011;24606;51.992;4.198;2022-09-03T01:48:39;2.05;;;1.13;;
38853;SDS011;24606;51.992;4.198;2022-09-03T01:53:48;1.55;;;0.90;;
38853;SDS011;24606;51.992;4.198;2022-09-03T01:59:02;1.33;;;1.20;;
38853;SDS011;24606;51.992;4.198;2022-09-03T02:04:18;2.85;;;1.17;;
38853;SDS011;24606;51.992;4.198;2022-09-03T02:09:22;2.15;;;1.25;;
38853;SDS011;24606;51.992;4.198;2022-09-03T02:14:24;3.72;;;1.20;;
38853;SDS011;24606;51.992;4.198;2022-09-03T02:19:29;2.75;;;1.20;;
38853;SDS011;24606;51.992;4.198;2022-09-03T02:24:31;3.80;;;1.20;;
38853;SDS011;24606;51.992;4.198;2022-09-03T02:29:33;2.58;;;1.10;;
38853;SDS011;24606;51.992;4.198;2022-09-03T02:34:36;1.70;;;1.10;;
38853;SDS011;24606;51.992;4.198;2022-09-03T02:39:38;1.40;;;1.15;;
38853;SDS011;24606;51.992;4.198;2022-09-03T02:44:40;2.33;;;1.42;;
38853;SDS011;24606;51.992;4.198;2022-09-03T02:49:46;1.55;;;1.00;;
38853;SDS011;24606;51.992;4.198;2022-09-03T02:54:48;2.97;;;1.25;;
38853;SDS011;24606;51.992;4.198;2022-09-03T02:59:50;1.55;;;0.90;;
38853;SDS011;24606;51.992;4.198;2022-09-03T03:04:53;2.03;;;0.90;;
38853;SDS011;24606;51.992;4.198;2022-09-03T03:09:55;1.63;;;1.30;;
38853;SDS011;24606;51.992;4.198;2022-09-03T03:14:57;3.55;;;1.48;;
38853;SDS011;24606;51.992;4.198;2022-09-03T03:20:00;1.65;;;1.02;;
38853;SDS011;24606;51.992;4.198;2022-09-03T03:25:03;2.55;;;1.20;;
38853;SDS011;24606;51.992;4.198;2022-09-03T03:30:05;1.38;;;1.02;;
38853;SDS011;24606;51.992;4.198;2022-09-03T03:35:10;1.20;;;0.98;;
38853;SDS011;24606;51.992;4.198;2022-09-03T03:40:12;2.22;;;1.10;;
38853;SDS011;24606;51.992;4.198;2022-09-03T03:45:15;2.03;;;0.82;;
38853;SDS011;24606;51.992;4.198;2022-09-03T03:50:18;2.58;;;1.10;;
38853;SDS011;24606;51.992;4.198;2022-09-03T03:55:20;2.80;;;1.10;;
38853;SDS011;24606;51.992;4.198;2022-09-03T04:00:22;4.78;;;1.27;;
38853;SDS011;24606;51.992;4.198;2022-09-03T04:05:25;2.10;;;0.82;;
38853;SDS011;24606;51.992;4.198;2022-09-03T04:10:27;1.73;;;1.00;;
38853;SDS011;24606;51.992;4.198;2022-09-03T04:15:29;1.45;;;1.02;;
38853;SDS011;24606;51.992;4.198;2022-09-03T04:20:32;1.70;;;1.30;;
38853;SDS011;24606;51.992;4.198;2022-09-03T04:25:35;2.00;;;1.10;;
38853;SDS011;24606;51.992;4.198;2022-09-03T04:30:37;1.10;;;0.93;;
38853;SDS011;24606;51.992;4.198;2022-09-03T04:35:40;7.50;;;2.08;;
38853;SDS011;24606;51.992;4.198;2022-09-03T04:40:43;0.90;;;0.88;;
38853;SDS011;24606;51.992;4.198;2022-09-03T04:45:54;2.63;;;1.10;;
38853;SDS011;24606;51.992;4.198;2022-09-03T04:51:02;2.00;;;0.90;;
38853;SDS011;24606;51.992;4.198;2022-09-03T04:56:10;1.17;;;0.98;;
38853;SDS011;24606;51.992;4.198;2022-09-03T05:01:14;2.17;;;1.30;;
38853;SDS011;24606;51.992;4.198;2022-09-03T05:06:19;1.52;;;1.00;;
38853;SDS011;24606;51.992;4.198;2022-09-03T05:11:21;2.30;;;1.20;;
38853;SDS011;24606;51.992;4.198;2022-09-03T05:16:25;0.95;;;0.77;;
38853;SDS011;24606;51.992;4.198;2022-09-03T05:21:30;1.40;;;1.00;;
38853;SDS011;24606;51.992;4.198;2022-09-03T05:26:34;1.83;;;1.20;;
38853;SDS011;24606;51.992;4.198;2022-09-03T05:31:38;1.25;;;1.15;;
38853;SDS011;24606;51.992;4.198;2022-09-03T05:36:41;1.50;;;1.20;;
38853;SDS011;24606;51.992;4.198;2022-09-03T05:41:43;1.52;;;1.20;;
38853;SDS011;24606;51.992;4.198;2022-09-03T05:46:45;2.72;;;1.20;;
38853;SDS011;24606;51.992;4.198;2022-09-03T05:51:48;2.83;;;1.40;;
38853;SDS011;24606;51.992;4.198;2022-09-03T05:56:50;2.83;;;1.52;;
38853;SDS011;24606;51.992;4.198;2022-09-03T06:01:51;5.78;;;1.88;;
38853;SDS011;24606;51.992;4.198;2022-09-03T06:06:55;4.32;;;1.63;;
38853;SDS011;24606;51.992;4.198;2022-09-03T06:11:57;4.15;;;1.20;;
38853;SDS011;24606;51.992;4.198;2022-09-03T06:16:58;2.47;;;1.20;;
38853;SDS011;24606;51.992;4.198;2022-09-03T06:22:01;3.15;;;1.27;;
38853;SDS011;24606;51.992;4.198;2022-09-03T06:27:04;2.58;;;1.50;;
38853;SDS011;24606;51.992;4.198;2022-09-03T06:32:07;3.22;;;1.48;;
38853;SDS011;24606;51.992;4.198;2022-09-03T06:37:10;4.10;;;1.27;;
38853;SDS011;24606;51.992;4.198;2022-09-03T06:42:12;1.75;;;1.00;;
38853;SDS011;24606;51.992;4.198;2022-09-03T06:47:13;3.10;;;1.45;;
38853;SDS011;24606;51.992;4.198;2022-09-03T06:52:16;1.60;;;1.15;;
38853;SDS011;24606;51.992;4.198;2022-09-03T06:57:18;3.53;;;1.35;;
38853;SDS011;24606;51.992;4.198;2022-09-03T07:02:20;4.40;;;1.30;;
38853;SDS011;24606;51.992;4.198;2022-09-03T07:07:24;5.53;;;1.80;;
38853;SDS011;24606;51.992;4.198;2022-09-03T07:12:26;4.80;;;1.88;;
38853;SDS011;24606;51.992;4.198;2022-09-03T07:17:28;5.05;;;2.00;;
38853;SDS011;24606;51.992;4.198;2022-09-03T07:22:31;8.13;;;1.85;;
38853;SDS011;24606;51.992;4.198;2022-09-03T07:27:33;6.72;;;1.80;;
38853;SDS011;24606;51.992;4.198;2022-09-03T07:32:35;4.57;;;1.23;;
38853;SDS011;24606;51.992;4.198;2022-09-03T07:37:41;3.30;;;1.58;;
38853;SDS011;24606;51.992;4.198;2022-09-03T07:42:43;4.05;;;1.38;;
38853;SDS011;24606;51.992;4.198;2022-09-03T07:47:47;3.35;;;1.52;;
38853;SDS011;24606;51.992;4.198;2022-09-03T07:52:56;4.63;;;1.58;;
38853;SDS011;24606;51.992;4.198;2022-09-03T07:57:58;4.93;;;1.65;;
38853;SDS011;24606;51.992;4.198;2022-09-03T08:03:00;4.57;;;1.38;;
38853;SDS011;24606;51.992;4.198;2022-09-03T08:08:07;2.05;;;1.23;;
38853;SDS011;24606;51.992;4.198;2022-09-03T08:13:09;3.72;;;1.58;;
38853;SDS011;24606;51.992;4.198;2022-09-03T08:18:11;3.10;;;1.42;;
38853;SDS011;24606;51.992;4.198;2022-09-03T08:23:14;9.30;;;1.60;;
38853;SDS011;24606;51.992;4.198;2022-09-03T08:28:16;4.57;;;1.60;;
38853;SDS011;24606;51.992;4.198;2022-09-03T08:33:17;2.97;;;1.60;;
38853;SDS011;24606;51.992;4.198;2022-09-03T08:38:37;4.28;;;1.13;;
38853;SDS011;24606;51.992;4.198;2022-09-03T08:43:58;4.70;;;1.50;;
38853;SDS011;24606;51.992;4.198;2022-09-03T08:49:14;4.63;;;2.20;;
38853;SDS011;24606;51.992;4.198;2022-09-03T08:54:23;3.85;;;1.80;;
38853;SDS011;24606;51.992;4.198;2022-09-03T08:59:29;4.97;;;1.50;;
38853;SDS011;24606;51.992;4.198;2022-09-03T09:04:35;5.35;;;1.52;;
38853;SDS011;24606;51.992;4.198;2022-09-03T09:09:49;5.18;;;1.60;;
38853;SDS011;24606;51.992;4.198;2022-09-03T09:15:07;2.30;;;1.42;;
38853;SDS011;24606;51.992;4.198;2022-09-03T09:20:14;6.63;;;1.80;;
38853;SDS011;24606;51.992;4.198;2022-09-03T09:25:24;4.82;;;1.73;;
38853;SDS011;24606;51.992;4.198;2022-09-03T09:30:27;2.67;;;1.70;;
38853;SDS011;24606;51.992;4.198;2022-09-03T09:35:30;4.53;;;1.65;;
38853;SDS011;24606;51.992;4.198;2022-09-03T09:40:35;3.83;;;2.03;;
38853;SDS011;24606;51.992;4.198;2022-09-03T09:45:38;2.22;;;1.40;;
38853;SDS011;24606;51.992;4.198;2022-09-03T09:50:41;4.15;;;1.55;;
38853;SDS011;24606;51.992;4.198;2022-09-03T09:55:51;2.38;;;1.50;;
38853;SDS011;24606;51.992;4.198;2022-09-03T10:01:03;4.47;;;1.65;;
38853;SDS011;24606;51.992;4.198;2022-09-03T10:06:13;2.95;;;1.42;;
38853;SDS011;24606;51.992;4.198;2022-09-03T10:11:52;4.35;;;1.63;;
38853;SDS011;24606;51.992;4.198;2022-09-03T10:17:04;3.40;;;1.50;;
38853;SDS011;24606;51.992;4.198;2022-09-03T10:22:12;3.28;;;1.55;;
38853;SDS011;24606;51.992;4.198;2022-09-03T10:27:21;4.60;;;1.45;;
38853;SDS011;24606;51.992;4.198;2022-09-03T10:32:28;3.63;;;1.50;;
38853;SDS011;24606;51.992;4.198;2022-09-03T10:37:39;5.43;;;1.23;;
38853;SDS011;24606;51.992;4.198;2022-09-03T10:42:47;2.08;;;1.30;;
38853;SDS011;24606;51.992;4.198;2022-09-03T10:53:29;2.63;;;1.40;;
38853;SDS011;24606;51.992;4.198;2022-09-03T10:59:03;2.55;;;1.80;;
38853;SDS011;24606;51.992;4.198;2022-09-03T11:04:22;3.55;;;1.48;;
38853;SDS011;24606;51.992;4.198;2022-09-03T11:14:37;2.92;;;1.17;;
38853;SDS011;24606;51.992;4.198;2022-09-03T11:19:45;1.80;;;1.50;;
38853;SDS011;24606;51.992;4.198;2022-09-03T11:24:50;3.53;;;1.80;;
38853;SDS011;24606;51.992;4.198;2022-09-03T11:29:59;2.25;;;1.30;;
38853;SDS011;24606;51.992;4.198;2022-09-03T11:35:12;1.80;;;1.27;;
38853;SDS011;24606;51.992;4.198;2022-09-03T11:40:16;2.38;;;1.48;;
38853;SDS011;24606;51.992;4.198;2022-09-03T11:45:32;2.97;;;1.42;;
38853;SDS011;24606;51.992;4.198;2022-09-03T11:50:36;1.75;;;1.27;;
38853;SDS011;24606;51.992;4.198;2022-09-03T11:55:48;1.92;;;1.30;;
38853;SDS011;24606;51.992;4.198;2022-09-03T12:00:56;1.58;;;1.35;;
38853;SDS011;24606;51.992;4.198;2022-09-03T12:06:14;3.30;;;1.23;;
38853;SDS011;24606;51.992;4.198;2022-09-03T12:11:34;3.90;;;1.55;;
38853;SDS011;24606;51.992;4.198;2022-09-03T12:16:48;2.33;;;1.20;;
38853;SDS011;24606;51.992;4.198;2022-09-03T12:22:00;1.60;;;1.10;;
38853;SDS011;24606;51.992;4.198;2022-09-03T12:27:03;2.00;;;1.20;;
38853;SDS011;24606;51.992;4.198;2022-09-03T12:32:10;2.28;;;1.20;;
38853;SDS011;24606;51.992;4.198;2022-09-03T12:37:18;2.67;;;1.45;;
38853;SDS011;24606;51.992;4.198;2022-09-03T12:42:23;4.10;;;1.80;;
38853;SDS011;24606;51.992;4.198;2022-09-03T12:47:28;1.42;;;1.20;;
38853;SDS011;24606;51.992;4.198;2022-09-03T12:52:31;2.55;;;1.23;;
38853;SDS011;24606;51.992;4.198;2022-09-03T12:57:37;4.82;;;1.17;;
38853;SDS011;24606;51.992;4.198;2022-09-03T13:02:45;1.50;;;1.23;;
38853;SDS011;24606;51.992;4.198;2022-09-03T13:07:53;1.00;;;0.90;;
38853;SDS011;24606;51.992;4.198;2022-09-03T13:13:00;1.58;;;1.13;;
38853;SDS011;24606;51.992;4.198;2022-09-03T13:18:17;2.10;;;1.00;;
38853;SDS011;24606;51.992;4.198;2022-09-03T13:23:29;6.72;;;1.40;;
38853;SDS011;24606;51.992;4.198;2022-09-03T13:28:41;4.25;;;1.35;;
38853;SDS011;24606;51.992;4.198;2022-09-03T13:34:00;8.85;;;1.88;;
38853;SDS011;24606;51.992;4.198;2022-09-03T13:39:08;2.05;;;0.90;;
38853;SDS011;24606;51.992;4.198;2022-09-03T13:44:20;2.25;;;1.50;;
38853;SDS011;24606;51.992;4.198;2022-09-03T13:49:33;2.58;;;1.20;;
38853;SDS011;24606;51.992;4.198;2022-09-03T13:54:58;5.50;;;1.20;;
38853;SDS011;24606;51.992;4.198;2022-09-03T14:00:08;2.47;;;0.85;;
38853;SDS011;24606;51.992;4.198;2022-09-03T14:05:14;4.07;;;1.50;;
38853;SDS011;24606;51.992;4.198;2022-09-03T14:10:26;2.00;;;0.95;;
38853;SDS011;24606;51.992;4.198;2022-09-03T14:15:40;3.95;;;1.30;;
38853;SDS011;24606;51.992;4.198;2022-09-03T14:20:46;5.13;;;1.40;;
38853;SDS011;24606;51.992;4.198;2022-09-03T14:25:55;5.05;;;1.55;;
38853;SDS011;24606;51.992;4.198;2022-09-03T14:31:01;6.47;;;1.17;;
38853;SDS011;24606;51.992;4.198;2022-09-03T14:36:13;3.60;;;1.50;;
38853;SDS011;24606;51.992;4.198;2022-09-03T14:46:54;1.00;;;0.80;;
38853;SDS011;24606;51.992;4.198;2022-09-03T14:52:09;3.70;;;1.00;;
38853;SDS011;24606;51.992;4.198;2022-09-03T14:57:32;3.13;;;0.83;;
38853;SDS011;24606;51.992;4.198;2022-09-03T15:03:03;3.63;;;0.82;;
38853;SDS011;24606;51.992;4.198;2022-09-03T15:08:31;4.03;;;1.33;;
38853;SDS011;24606;51.992;4.198;2022-09-03T15:13:50;3.03;;;0.82;;
38853;SDS011;24606;51.992;4.198;2022-09-03T15:18:58;3.08;;;0.98;;
38853;SDS011;24606;51.992;4.198;2022-09-03T15:24:12;1.67;;;1.40;;
38853;SDS011;24606;51.992;4.198;2022-09-03T15:29:29;9.10;;;2.17;;
38853;SDS011;24606;51.992;4.198;2022-09-03T15:34:49;6.53;;;1.70;;
38853;SDS011;24606;51.992;4.198;2022-09-03T15:40:06;1.45;;;1.10;;
38853;SDS011;24606;51.992;4.198;2022-09-03T15:45:15;3.70;;;1.00;;
38853;SDS011;24606;51.992;4.198;2022-09-03T15:50:28;11.73;;;2.00;;
38853;SDS011;24606;51.992;4.198;2022-09-03T15:55:36;1.85;;;0.85;;
38853;SDS011;24606;51.992;4.198;2022-09-03T16:00:48;1.27;;;0.70;;
38853;SDS011;24606;51.992;4.198;2022-09-03T16:05:56;3.80;;;1.23;;
38853;SDS011;24606;51.992;4.198;2022-09-03T16:11:05;6.00;;;1.10;;
38853;SDS011;24606;51.992;4.198;2022-09-03T16:16:12;2.10;;;0.98;;
38853;SDS011;24606;51.992;4.198;2022-09-03T16:21:22;2.03;;;0.80;;
38853;SDS011;24606;51.992;4.198;2022-09-03T16:26:30;1.48;;;1.10;;
38853;SDS011;24606;51.992;4.198;2022-09-03T16:31:40;6.47;;;1.90;;
38853;SDS011;24606;51.992;4.198;2022-09-03T16:36:57;4.60;;;1.92;;
38853;SDS011;24606;51.992;4.198;2022-09-03T16:42:10;1.40;;;0.95;;
38853;SDS011;24606;51.992;4.198;2022-09-03T16:47:20;4.47;;;1.48;;
38853;SDS011;24606;51.992;4.198;2022-09-03T16:52:36;1.10;;;1.00;;
38853;SDS011;24606;51.992;4.198;2022-09-03T16:57:55;3.88;;;1.10;;
38853;SDS011;24606;51.992;4.198;2022-09-03T17:03:13;4.03;;;1.02;;
38853;SDS011;24606;51.992;4.198;2022-09-03T17:08:26;3.30;;;2.13;;
38853;SDS011;24606;51.992;4.198;2022-09-03T17:13:44;5.60;;;1.80;;
38853;SDS011;24606;51.992;4.198;2022-09-03T17:19:04;3.88;;;1.38;;
38853;SDS011;24606;51.992;4.198;2022-09-03T17:29:41;4.32;;;1.17;;
38853;SDS011;24606;51.992;4.198;2022-09-03T17:35:05;2.25;;;0.88;;
38853;SDS011;24606;51.992;4.198;2022-09-03T17:40:15;5.47;;;1.75;;
38853;SDS011;24606;51.992;4.198;2022-09-03T17:45:32;2.28;;;1.58;;
38853;SDS011;24606;51.992;4.198;2022-09-03T17:50:44;1.85;;;1.30;;
38853;SDS011;24606;51.992;4.198;2022-09-03T17:55:58;1.55;;;1.20;;
38853;SDS011;24606;51.992;4.198;2022-09-03T18:01:06;2.17;;;1.27;;
38853;SDS011;24606;51.992;4.198;2022-09-03T18:06:19;2.30;;;1.20;;
38853;SDS011;24606;51.992;4.198;2022-09-03T18:11:28;1.45;;;1.10;;
38853;SDS011;24606;51.992;4.198;2022-09-03T18:16:36;2.03;;;1.27;;
38853;SDS011;24606;51.992;4.198;2022-09-03T18:21:43;1.35;;;1.00;;
38853;SDS011;24606;51.992;4.198;2022-09-03T18:27:07;1.40;;;1.30;;
38853;SDS011;24606;51.992;4.198;2022-09-03T18:32:31;1.73;;;1.40;;
38853;SDS011;24606;51.992;4.198;2022-09-03T18:37:50;2.00;;;1.60;;
38853;SDS011;24606;51.992;4.198;2022-09-03T18:43:11;1.53;;;1.13;;
38853;SDS011;24606;51.992;4.198;2022-09-03T18:48:41;2.88;;;1.17;;
38853;SDS011;24606;51.992;4.198;2022-09-03T18:54:11;2.63;;;1.00;;
38853;SDS011;24606;51.992;4.198;2022-09-03T19:11:00;2.58;;;1.15;;
38853;SDS011;24606;51.992;4.198;2022-09-03T19:16:30;2.25;;;1.20;;
38853;SDS011;24606;51.992;4.198;2022-09-03T19:22:04;2.45;;;1.15;;
38853;SDS011;24606;51.992;4.198;2022-09-03T19:27:28;2.72;;;1.27;;
38853;SDS011;24606;51.992;4.198;2022-09-03T19:32:57;2.30;;;1.50;;
38853;SDS011;24606;51.992;4.198;2022-09-03T19:38:29;2.87;;;1.30;;
38853;SDS011;24606;51.992;4.198;2022-09-03T19:43:59;1.20;;;1.10;;
38853;SDS011;24606;51.992;4.198;2022-09-03T19:49:35;1.27;;;1.10;;
38853;SDS011;24606;51.992;4.198;2022-09-03T19:55:05;1.63;;;1.27;;
38853;SDS011;24606;51.992;4.198;2022-09-03T20:00:28;1.95;;;1.40;;
38853;SDS011;24606;51.992;4.198;2022-09-03T20:05:49;3.08;;;1.23;;
38853;SDS011;24606;51.992;4.198;2022-09-03T20:11:15;3.85;;;1.38;;
38853;SDS011;24606;51.992;4.198;2022-09-03T20:16:18;2.20;;;1.48;;
38853;SDS011;24606;51.992;4.198;2022-09-03T20:21:25;3.80;;;1.60;;
38853;SDS011;24606;51.992;4.198;2022-09-03T20:26:37;5.50;;;1.75;;
38853;SDS011;24606;51.992;4.198;2022-09-03T20:31:47;7.55;;;2.03;;
38853;SDS011;24606;51.992;4.198;2022-09-03T20:36:56;8.80;;;2.00;;
38853;SDS011;24606;51.992;4.198;2022-09-03T20:42:17;10.95;;;2.13;;
38853;SDS011;24606;51.992;4.198;2022-09-03T20:47:39;5.80;;;2.60;;
38853;SDS011;24606;51.992;4.198;2022-09-03T20:52:49;8.02;;;2.83;;
38853;SDS011;24606;51.992;4.198;2022-09-03T20:58:02;11.43;;;2.63;;
38853;SDS011;24606;51.992;4.198;2022-09-03T21:03:12;6.25;;;2.28;;
38853;SDS011;24606;51.992;4.198;2022-09-03T21:08:26;5.75;;;2.60;;
38853;SDS011;24606;51.992;4.198;2022-09-03T21:13:41;12.07;;;2.50;;
38853;SDS011;24606;51.992;4.198;2022-09-03T21:18:49;7.68;;;2.53;;
38853;SDS011;24606;51.992;4.198;2022-09-03T21:24:01;4.00;;;2.45;;
38853;SDS011;24606;51.992;4.198;2022-09-03T21:29:08;4.93;;;2.92;;
38853;SDS011;24606;51.992;4.198;2022-09-03T21:34:18;4.97;;;2.83;;
38853;SDS011;24606;51.992;4.198;2022-09-03T21:39:25;7.13;;;2.50;;
38853;SDS011;24606;51.992;4.198;2022-09-03T21:44:49;6.10;;;2.88;;
38853;SDS011;24606;51.992;4.198;2022-09-03T21:49:57;5.45;;;3.05;;
38853;SDS011;24606;51.992;4.198;2022-09-03T21:55:17;7.43;;;3.10;;
38853;SDS011;24606;51.992;4.198;2022-09-03T22:00:26;7.47;;;2.90;;
38853;SDS011;24606;51.992;4.198;2022-09-03T22:05:32;7.32;;;3.00;;
38853;SDS011;24606;51.992;4.198;2022-09-03T22:10:47;3.97;;;2.70;;
38853;SDS011;24606;51.992;4.198;2022-09-03T22:15:59;6.15;;;2.78;;
38853;SDS011;24606;51.992;4.198;2022-09-03T22:21:09;3.72;;;2.60;;
38853;SDS011;24606;51.992;4.198;2022-09-03T22:26:19;5.40;;;2.42;;
38853;SDS011;24606;51.992;4.198;2022-09-03T22:31:28;4.05;;;2.42;;
38853;SDS011;24606;51.992;4.198;2022-09-03T22:36:36;4.65;;;2.58;;
38853;SDS011;24606;51.992;4.198;2022-09-03T22:41:47;3.65;;;2.65;;
38853;SDS011;24606;51.992;4.198;2022-09-03T22:47:12;6.13;;;2.92;;
38853;SDS011;24606;51.992;4.198;2022-09-03T22:52:26;4.65;;;2.80;;
38853;SDS011;24606;51.992;4.198;2022-09-03T22:57:33;4.82;;;3.35;;
38853;SDS011;24606;51.992;4.198;2022-09-03T23:02:42;4.57;;;2.92;;
38853;SDS011;24606;51.992;4.198;2022-09-03T23:07:47;4.35;;;2.83;;
38853;SDS011;24606;51.992;4.198;2022-09-03T23:12:57;4.10;;;2.97;;
38853;SDS011;24606;51.992;4.198;2022-09-03T23:18:08;6.50;;;2.78;;
38853;SDS011;24606;51.992;4.198;2022-09-03T23:23:15;3.17;;;2.70;;
38853;SDS011;24606;51.992;4.198;2022-09-03T23:28:20;4.03;;;2.58;;
38853;SDS011;24606;51.992;4.198;2022-09-03T23:33:28;5.00;;;3.45;;
38853;SDS011;24606;51.992;4.198;2022-09-03T23:38:31;6.10;;;2.70;;
38853;SDS011;24606;51.992;4.198;2022-09-03T23:43:51;4.68;;;2.50;;
38853;SDS011;24606;51.992;4.198;2022-09-03T23:49:14;3.60;;;2.58;;
38853;SDS011;24606;51.992;4.198;2022-09-03T23:54:30;4.00;;;2.47;;
38853;SDS011;24606;51.992;4.198;2022-09-03T23:59:42;4.38;;;2.78;;
